sensor_id;sensor_type;location;lat;lon;timestamp;pressure;altitude;pressure_sealevel;temperature;humidity
2675;BME280;1347;42.122;24.746;2024-02-04T00:01:04;99821.75;;;10.12;57.28
2675;BME280;1347;42.122;24.746;2024-02-04T00:03:30;99828.47;;;10.15;57.07
2675;BME280;1347;42.122;24.746;2024-02-04T00:05:57;99833.84;;;10.11;56.88
2675;BME280;1347;42.122;24.746;2024-02-04T00:08:24;99837.59;;;10.03;57.39
2675;BME280;1347;42.122;24.746;2024-02-04T00:10:51;99832.91;;;10.04;57.39
2675;BME280;1347;42.122;24.746;2024-02-04T00:13:18;99839.63;;;10.06;57.36
2675;BME280;1347;42.122;24.746;2024-02-04T00:15:45;99837.44;;;9.96;57.42
2675;BME280;1347;42.122;24.746;2024-02-04T00:18:13;99841.09;;;9.84;57.88
2675;BME280;1347;42.122;24.746;2024-02-04T00:20:40;99834.88;;;9.87;58.04
2675;BME280;1347;42.122;24.746;2024-02-04T00:23:06;99842.25;;;9.83;58.24
2675;BME280;1347;42.122;24.746;2024-02-04T00:25:33;99848.66;;;9.91;58.08
2675;BME280;1347;42.122;24.746;2024-02-04T00:28:00;99854.84;;;9.88;58.09
2675;BME280;1347;42.122;24.746;2024-02-04T00:30:27;99845.06;;;9.87;58.49
2675;BME280;1347;42.122;24.746;2024-02-04T00:32:54;99831.38;;;9.87;58.65
2675;BME280;1347;42.122;24.746;2024-02-04T00:35:22;99845.47;;;9.89;58.61
2675;BME280;1347;42.122;24.746;2024-02-04T00:37:49;99851.94;;;9.96;58.17
2675;BME280;1347;42.122;24.746;2024-02-04T00:40:15;99853.94;;;10.00;58.08
2675;BME280;1347;42.122;24.746;2024-02-04T00:42:42;99839.19;;;10.04;58.14
2675;BME280;1347;42.122;24.746;2024-02-04T00:45:09;99837.50;;;10.00;57.91
2675;BME280;1347;42.122;24.746;2024-02-04T00:47:36;99847.41;;;10.04;57.65
2675;BME280;1347;42.122;24.746;2024-02-04T00:50:04;99846.16;;;10.02;58.06
2675;BME280;1347;42.122;24.746;2024-02-04T00:52:32;99840.69;;;10.02;57.71
2675;BME280;1347;42.122;24.746;2024-02-04T00:54:59;99839.53;;;10.03;57.55
2675;BME280;1347;42.122;24.746;2024-02-04T00:57:26;99828.16;;;10.01;58.00
2675;BME280;1347;42.122;24.746;2024-02-04T00:59:53;99846.25;;;10.05;58.07
2675;BME280;1347;42.122;24.746;2024-02-04T01:02:20;99847.41;;;10.04;58.25
2675;BME280;1347;42.122;24.746;2024-02-04T01:04:46;99850.06;;;10.01;57.85
2675;BME280;1347;42.122;24.746;2024-02-04T01:07:13;99845.03;;;10.03;57.82
2675;BME280;1347;42.122;24.746;2024-02-04T01:09:42;99857.13;;;10.02;58.56
2675;BME280;1347;42.122;24.746;2024-02-04T01:12:09;99854.84;;;9.88;59.00
2675;BME280;1347;42.122;24.746;2024-02-04T01:14:35;99841.53;;;9.86;58.65
2675;BME280;1347;42.122;24.746;2024-02-04T01:17:03;99841.34;;;9.79;58.32
2675;BME280;1347;42.122;24.746;2024-02-04T01:19:29;99839.41;;;9.80;58.21
2675;BME280;1347;42.122;24.746;2024-02-04T01:21:56;99838.81;;;9.71;58.88
2675;BME280;1347;42.122;24.746;2024-02-04T01:24:24;99850.19;;;9.73;58.85
2675;BME280;1347;42.122;24.746;2024-02-04T01:26:52;99843.44;;;9.67;59.18
2675;BME280;1347;42.122;24.746;2024-02-04T01:29:19;99844.81;;;9.60;58.94
2675;BME280;1347;42.122;24.746;2024-02-04T01:31:46;99848.34;;;9.61;59.44
2675;BME280;1347;42.122;24.746;2024-02-04T01:34:13;99840.34;;;9.52;59.56
2675;BME280;1347;42.122;24.746;2024-02-04T01:36:40;99844.56;;;9.50;59.90
2675;BME280;1347;42.122;24.746;2024-02-04T01:39:07;99845.09;;;9.55;60.22
2675;BME280;1347;42.122;24.746;2024-02-04T01:41:34;99834.06;;;9.52;60.21
2675;BME280;1347;42.122;24.746;2024-02-04T01:44:03;99829.84;;;9.54;59.97
2675;BME280;1347;42.122;24.746;2024-02-04T01:46:30;99837.25;;;9.54;59.83
2675;BME280;1347;42.122;24.746;2024-02-04T01:48:57;99840.00;;;9.54;59.75
2675;BME280;1347;42.122;24.746;2024-02-04T01:51:24;99837.16;;;9.50;59.90
2675;BME280;1347;42.122;24.746;2024-02-04T01:53:51;99838.03;;;9.54;60.11
2675;BME280;1347;42.122;24.746;2024-02-04T01:56:19;99848.25;;;9.57;60.55
2675;BME280;1347;42.122;24.746;2024-02-04T01:58:46;99844.38;;;9.58;60.85
2675;BME280;1347;42.122;24.746;2024-02-04T02:01:16;99838.56;;;9.60;60.32
2675;BME280;1347;42.122;24.746;2024-02-04T02:03:43;99836.25;;;9.62;60.13
2675;BME280;1347;42.122;24.746;2024-02-04T02:06:10;99830.50;;;9.67;60.22
2675;BME280;1347;42.122;24.746;2024-02-04T02:08:37;99837.16;;;9.66;60.34
2675;BME280;1347;42.122;24.746;2024-02-04T02:11:09;99835.47;;;9.62;60.49
2675;BME280;1347;42.122;24.746;2024-02-04T02:13:39;99829.66;;;9.63;61.07
2675;BME280;1347;42.122;24.746;2024-02-04T02:16:10;99827.34;;;9.65;61.15
2675;BME280;1347;42.122;24.746;2024-02-04T02:18:44;99831.50;;;9.59;61.70
2675;BME280;1347;42.122;24.746;2024-02-04T02:21:25;99818.69;;;9.63;61.37
2675;BME280;1347;42.122;24.746;2024-02-04T02:24:03;99827.59;;;9.60;61.67
2675;BME280;1347;42.122;24.746;2024-02-04T02:26:32;99822.41;;;9.55;61.91
2675;BME280;1347;42.122;24.746;2024-02-04T02:29:03;99829.91;;;9.58;62.17
2675;BME280;1347;42.122;24.746;2024-02-04T02:31:30;99828.75;;;9.59;61.89
2675;BME280;1347;42.122;24.746;2024-02-04T02:33:57;99827.09;;;9.54;62.27
2675;BME280;1347;42.122;24.746;2024-02-04T02:36:25;99821.97;;;9.53;62.77
2675;BME280;1347;42.122;24.746;2024-02-04T02:39:00;99825.50;;;9.53;62.53
2675;BME280;1347;42.122;24.746;2024-02-04T02:41:30;99822.22;;;9.48;63.16
2675;BME280;1347;42.122;24.746;2024-02-04T02:44:00;99812.53;;;9.50;62.52
2675;BME280;1347;42.122;24.746;2024-02-04T02:46:27;99821.44;;;9.47;62.81
2675;BME280;1347;42.122;24.746;2024-02-04T02:48:54;99806.59;;;9.48;62.38
2675;BME280;1347;42.122;24.746;2024-02-04T02:51:21;99815.16;;;9.47;62.76
2675;BME280;1347;42.122;24.746;2024-02-04T02:53:48;99815.97;;;9.47;62.45
2675;BME280;1347;42.122;24.746;2024-02-04T02:56:15;99811.56;;;9.43;62.28
2675;BME280;1347;42.122;24.746;2024-02-04T02:58:42;99808.03;;;9.42;62.46
2675;BME280;1347;42.122;24.746;2024-02-04T03:01:10;99814.22;;;9.39;62.24
2675;BME280;1347;42.122;24.746;2024-02-04T03:03:37;99806.72;;;9.36;62.97
2675;BME280;1347;42.122;24.746;2024-02-04T03:06:05;99813.34;;;9.35;62.81
2675;BME280;1347;42.122;24.746;2024-02-04T03:08:32;99796.03;;;9.31;63.13
2675;BME280;1347;42.122;24.746;2024-02-04T03:10:58;99800.03;;;9.34;62.71
2675;BME280;1347;42.122;24.746;2024-02-04T03:13:25;99797.72;;;9.36;61.88
2675;BME280;1347;42.122;24.746;2024-02-04T03:15:52;99794.63;;;9.37;62.21
2675;BME280;1347;42.122;24.746;2024-02-04T03:18:21;99800.09;;;9.37;61.89
2675;BME280;1347;42.122;24.746;2024-02-04T03:20:47;99794.91;;;9.32;61.86
2675;BME280;1347;42.122;24.746;2024-02-04T03:23:14;99794.91;;;9.32;62.06
2675;BME280;1347;42.122;24.746;2024-02-04T03:25:41;99799.47;;;9.28;62.74
2675;BME280;1347;42.122;24.746;2024-02-04T03:28:08;99795.34;;;9.34;62.29
2675;BME280;1347;42.122;24.746;2024-02-04T03:30:35;99800.47;;;9.36;62.01
2675;BME280;1347;42.122;24.746;2024-02-04T03:33:02;99799.66;;;9.35;62.33
2675;BME280;1347;42.122;24.746;2024-02-04T03:35:30;99803.81;;;9.29;62.67
2675;BME280;1347;42.122;24.746;2024-02-04T03:37:57;99795.78;;;9.36;61.93
2675;BME280;1347;42.122;24.746;2024-02-04T03:40:24;99797.00;;;9.39;61.37
2675;BME280;1347;42.122;24.746;2024-02-04T03:42:51;99781.38;;;9.39;61.16
2675;BME280;1347;42.122;24.746;2024-02-04T03:45:18;99779.44;;;9.40;60.68
2675;BME280;1347;42.122;24.746;2024-02-04T03:47:45;99783.31;;;9.39;61.13
2675;BME280;1347;42.122;24.746;2024-02-04T03:50:12;99793.41;;;9.35;60.78
2675;BME280;1347;42.122;24.746;2024-02-04T03:52:40;99790.31;;;9.36;61.09
2675;BME280;1347;42.122;24.746;2024-02-04T03:55:08;99780.94;;;9.37;60.52
2675;BME280;1347;42.122;24.746;2024-02-04T03:57:35;99789.06;;;9.34;60.72
2675;BME280;1347;42.122;24.746;2024-02-04T04:00:02;99787.50;;;9.33;60.18
2675;BME280;1347;42.122;24.746;2024-02-04T04:02:29;99785.53;;;9.33;60.46
2675;BME280;1347;42.122;24.746;2024-02-04T04:04:56;99788.97;;;9.30;60.40
2675;BME280;1347;42.122;24.746;2024-02-04T04:07:23;99787.56;;;9.20;60.94
2675;BME280;1347;42.122;24.746;2024-02-04T04:09:51;99784.31;;;9.15;61.27
2675;BME280;1347;42.122;24.746;2024-02-04T04:12:18;99776.53;;;9.17;61.23
2675;BME280;1347;42.122;24.746;2024-02-04T04:14:45;99774.88;;;9.12;62.18
2675;BME280;1347;42.122;24.746;2024-02-04T04:17:12;99767.03;;;9.11;62.91
2675;BME280;1347;42.122;24.746;2024-02-04T04:19:39;99764.13;;;9.04;64.35
2675;BME280;1347;42.122;24.746;2024-02-04T04:22:06;99769.91;;;9.18;64.35
2675;BME280;1347;42.122;24.746;2024-02-04T04:24:33;99770.47;;;9.23;64.37
2675;BME280;1347;42.122;24.746;2024-02-04T04:27:01;99760.31;;;9.24;64.49
2675;BME280;1347;42.122;24.746;2024-02-04T04:29:28;99761.91;;;9.25;64.91
2675;BME280;1347;42.122;24.746;2024-02-04T04:31:55;99761.19;;;9.28;65.74
2675;BME280;1347;42.122;24.746;2024-02-04T04:34:21;99760.63;;;9.38;65.96
2675;BME280;1347;42.122;24.746;2024-02-04T04:36:48;99751.03;;;9.44;66.23
2675;BME280;1347;42.122;24.746;2024-02-04T04:39:15;99756.16;;;9.46;65.85
2675;BME280;1347;42.122;24.746;2024-02-04T04:41:43;99736.34;;;9.52;65.54
2675;BME280;1347;42.122;24.746;2024-02-04T04:44:12;99750.19;;;9.59;65.67
2675;BME280;1347;42.122;24.746;2024-02-04T04:46:39;99754.16;;;9.62;65.29
2675;BME280;1347;42.122;24.746;2024-02-04T04:49:06;99751.22;;;9.71;64.50
2675;BME280;1347;42.122;24.746;2024-02-04T04:51:33;99751.22;;;9.71;64.71
2675;BME280;1347;42.122;24.746;2024-02-04T04:54:00;99749.28;;;9.71;64.05
2675;BME280;1347;42.122;24.746;2024-02-04T04:56:27;99740.34;;;9.74;63.83
2675;BME280;1347;42.122;24.746;2024-02-04T04:58:53;99747.47;;;9.79;63.72
2675;BME280;1347;42.122;24.746;2024-02-04T05:01:22;99744.38;;;9.80;64.08
2675;BME280;1347;42.122;24.746;2024-02-04T05:03:48;99754.63;;;9.83;64.25
2675;BME280;1347;42.122;24.746;2024-02-04T05:06:15;99752.34;;;9.85;64.17
2675;BME280;1347;42.122;24.746;2024-02-04T05:08:42;99765.28;;;9.88;64.11
2675;BME280;1347;42.122;24.746;2024-02-04T05:11:09;99769.41;;;9.98;63.57
2675;BME280;1347;42.122;24.746;2024-02-04T05:13:38;99764.44;;;10.04;63.25
2675;BME280;1347;42.122;24.746;2024-02-04T05:16:05;99763.91;;;9.98;63.83
2675;BME280;1347;42.122;24.746;2024-02-04T05:18:34;99771.16;;;10.06;63.47
2675;BME280;1347;42.122;24.746;2024-02-04T05:21:01;99782.25;;;10.13;63.81
2675;BME280;1347;42.122;24.746;2024-02-04T05:23:28;99784.38;;;10.20;63.56
2675;BME280;1347;42.122;24.746;2024-02-04T05:25:55;99790.72;;;10.24;63.35
2675;BME280;1347;42.122;24.746;2024-02-04T05:28:22;99792.66;;;10.23;63.11
2675;BME280;1347;42.122;24.746;2024-02-04T05:30:49;99796.47;;;10.19;63.00
2675;BME280;1347;42.122;24.746;2024-02-04T05:33:15;99791.09;;;10.22;62.61
2675;BME280;1347;42.122;24.746;2024-02-04T05:35:44;99795.06;;;10.25;62.70
2675;BME280;1347;42.122;24.746;2024-02-04T05:38:10;99808.75;;;10.25;62.57
2675;BME280;1347;42.122;24.746;2024-02-04T05:40:37;99806.84;;;10.29;62.50
2675;BME280;1347;42.122;24.746;2024-02-04T05:43:04;99801.03;;;10.30;62.27
2675;BME280;1347;42.122;24.746;2024-02-04T05:45:33;99812.16;;;10.38;62.16
2675;BME280;1347;42.122;24.746;2024-02-04T05:48:00;99828.16;;;10.36;61.72
2675;BME280;1347;42.122;24.746;2024-02-04T05:50:26;99833.28;;;10.37;62.14
2675;BME280;1347;42.122;24.746;2024-02-04T05:52:55;99820.94;;;10.27;61.74
2675;BME280;1347;42.122;24.746;2024-02-04T05:55:22;99823.03;;;10.34;61.28
2675;BME280;1347;42.122;24.746;2024-02-04T05:57:48;99828.06;;;10.32;61.28
2675;BME280;1347;42.122;24.746;2024-02-04T06:00:16;99813.22;;;10.33;60.85
2675;BME280;1347;42.122;24.746;2024-02-04T06:02:43;99818.81;;;10.21;61.40
2675;BME280;1347;42.122;24.746;2024-02-04T06:05:12;99829.78;;;10.21;61.74
2675;BME280;1347;42.122;24.746;2024-02-04T06:07:39;99809.81;;;10.20;61.89
2675;BME280;1347;42.122;24.746;2024-02-04T06:10:10;99822.47;;;10.09;62.24
2675;BME280;1347;42.122;24.746;2024-02-04T06:12:37;99817.59;;;10.18;61.98
2675;BME280;1347;42.122;24.746;2024-02-04T06:15:12;99820.69;;;10.17;62.24
2675;BME280;1347;42.122;24.746;2024-02-04T06:17:39;99813.53;;;10.12;62.67
2675;BME280;1347;42.122;24.746;2024-02-04T06:20:06;99805.56;;;10.23;62.76
2675;BME280;1347;42.122;24.746;2024-02-04T06:22:34;99804.69;;;10.19;62.82
2675;BME280;1347;42.122;24.746;2024-02-04T06:25:01;99782.41;;;10.20;63.01
2675;BME280;1347;42.122;24.746;2024-02-04T06:27:29;99783.13;;;10.17;63.54
2675;BME280;1347;42.122;24.746;2024-02-04T06:29:56;99782.59;;;10.27;63.09
2675;BME280;1347;42.122;24.746;2024-02-04T06:32:23;99784.66;;;10.34;63.51
2675;BME280;1347;42.122;24.746;2024-02-04T06:34:50;99778.53;;;10.41;63.23
2675;BME280;1347;42.122;24.746;2024-02-04T06:37:19;99767.44;;;10.33;63.73
2675;BME280;1347;42.122;24.746;2024-02-04T06:39:46;99760.56;;;10.43;64.00
2675;BME280;1347;42.122;24.746;2024-02-04T06:42:13;99769.22;;;10.45;63.86
2675;BME280;1347;42.122;24.746;2024-02-04T06:44:43;99776.78;;;10.52;64.03
2675;BME280;1347;42.122;24.746;2024-02-04T06:47:10;99779.97;;;10.54;64.39
2675;BME280;1347;42.122;24.746;2024-02-04T06:49:37;99786.88;;;10.67;63.39
2675;BME280;1347;42.122;24.746;2024-02-04T06:52:05;99791.69;;;10.74;63.63
2675;BME280;1347;42.122;24.746;2024-02-04T06:54:31;99798.09;;;10.81;63.72
2675;BME280;1347;42.122;24.746;2024-02-04T06:56:58;99804.09;;;10.87;64.26
2675;BME280;1347;42.122;24.746;2024-02-04T06:59:25;99803.06;;;10.95;63.62
2675;BME280;1347;42.122;24.746;2024-02-04T07:01:53;99790.19;;;10.99;64.08
2675;BME280;1347;42.122;24.746;2024-02-04T07:04:20;99810.31;;;11.06;64.51
2675;BME280;1347;42.122;24.746;2024-02-04T07:06:49;99821.41;;;11.14;64.13
2675;BME280;1347;42.122;24.746;2024-02-04T07:09:16;99814.88;;;11.22;64.35
2675;BME280;1347;42.122;24.746;2024-02-04T07:11:43;99816.16;;;11.28;63.68
2675;BME280;1347;42.122;24.746;2024-02-04T07:14:11;99819.38;;;11.33;63.75
2675;BME280;1347;42.122;24.746;2024-02-04T07:16:38;99821.88;;;11.42;63.22
2675;BME280;1347;42.122;24.746;2024-02-04T07:19:06;99829.44;;;11.49;62.83
2675;BME280;1347;42.122;24.746;2024-02-04T07:21:33;99841.69;;;11.55;63.00
2675;BME280;1347;42.122;24.746;2024-02-04T07:24:00;99834.69;;;11.57;62.96
2675;BME280;1347;42.122;24.746;2024-02-04T07:26:27;99852.84;;;11.65;62.56
2675;BME280;1347;42.122;24.746;2024-02-04T07:28:54;99844.31;;;11.70;61.92
2675;BME280;1347;42.122;24.746;2024-02-04T07:31:21;99852.69;;;11.77;61.55
2675;BME280;1347;42.122;24.746;2024-02-04T07:33:48;99849.22;;;11.81;61.86
2675;BME280;1347;42.122;24.746;2024-02-04T07:36:16;99852.72;;;11.81;61.38
2675;BME280;1347;42.122;24.746;2024-02-04T07:38:43;99841.84;;;11.88;61.13
2675;BME280;1347;42.122;24.746;2024-02-04T07:41:13;99852.63;;;12.00;60.32
2675;BME280;1347;42.122;24.746;2024-02-04T07:43:40;99866.38;;;12.00;60.21
2675;BME280;1347;42.122;24.746;2024-02-04T07:46:09;99846.16;;;12.15;59.37
2675;BME280;1347;42.122;24.746;2024-02-04T07:48:36;99850.03;;;12.41;59.17
2675;BME280;1347;42.122;24.746;2024-02-04T07:51:03;99839.38;;;12.69;58.40
2675;BME280;1347;42.122;24.746;2024-02-04T07:53:31;99841.50;;;13.20;56.77
2675;BME280;1347;42.122;24.746;2024-02-04T07:55:58;99841.25;;;13.87;55.01
2675;BME280;1347;42.122;24.746;2024-02-04T07:58:25;99838.94;;;14.65;53.28
2675;BME280;1347;42.122;24.746;2024-02-04T08:00:53;99845.78;;;15.24;52.13
2675;BME280;1347;42.122;24.746;2024-02-04T08:03:19;99848.97;;;15.79;49.97
2675;BME280;1347;42.122;24.746;2024-02-04T08:05:46;99844.97;;;16.16;49.72
2675;BME280;1347;42.122;24.746;2024-02-04T08:08:13;99836.94;;;16.50;48.38
2675;BME280;1347;42.122;24.746;2024-02-04T08:10:42;99845.13;;;16.82;47.60
2675;BME280;1347;42.122;24.746;2024-02-04T08:13:09;99832.41;;;16.99;47.55
2675;BME280;1347;42.122;24.746;2024-02-04T08:15:35;99838.00;;;17.43;46.95
2675;BME280;1347;42.122;24.746;2024-02-04T08:18:03;99828.16;;;17.87;45.29
2675;BME280;1347;42.122;24.746;2024-02-04T08:20:29;99821.13;;;17.79;45.66
2675;BME280;1347;42.122;24.746;2024-02-04T08:22:56;99826.72;;;18.47;44.41
2675;BME280;1347;42.122;24.746;2024-02-04T08:25:23;99821.97;;;18.44;44.09
2675;BME280;1347;42.122;24.746;2024-02-04T08:27:53;99810.16;;;18.02;44.92
2675;BME280;1347;42.122;24.746;2024-02-04T08:30:20;99810.53;;;17.67;45.58
2675;BME280;1347;42.122;24.746;2024-02-04T08:32:46;99822.41;;;17.15;46.38
2675;BME280;1347;42.122;24.746;2024-02-04T08:35:13;99817.56;;;16.57;47.50
2675;BME280;1347;42.122;24.746;2024-02-04T08:37:40;99813.97;;;16.60;47.53
2675;BME280;1347;42.122;24.746;2024-02-04T08:40:08;99818.09;;;16.20;48.11
2675;BME280;1347;42.122;24.746;2024-02-04T08:42:36;99830.00;;;16.06;49.08
2675;BME280;1347;42.122;24.746;2024-02-04T08:45:05;99825.66;;;15.24;50.53
2675;BME280;1347;42.122;24.746;2024-02-04T08:47:32;99834.31;;;15.08;51.09
2675;BME280;1347;42.122;24.746;2024-02-04T08:49:59;99827.66;;;15.44;50.40
2675;BME280;1347;42.122;24.746;2024-02-04T08:52:26;99820.44;;;16.22;48.89
2675;BME280;1347;42.122;24.746;2024-02-04T08:54:53;99813.09;;;16.81;47.68
2675;BME280;1347;42.122;24.746;2024-02-04T08:57:20;99820.66;;;17.84;46.32
2675;BME280;1347;42.122;24.746;2024-02-04T08:59:47;99824.19;;;17.88;45.84
2675;BME280;1347;42.122;24.746;2024-02-04T09:02:15;99817.94;;;19.13;43.48
2675;BME280;1347;42.122;24.746;2024-02-04T09:04:43;99825.56;;;19.59;42.43
2675;BME280;1347;42.122;24.746;2024-02-04T09:07:10;99829.31;;;19.72;42.46
2675;BME280;1347;42.122;24.746;2024-02-04T09:09:36;99825.41;;;20.32;41.01
2675;BME280;1347;42.122;24.746;2024-02-04T09:12:04;99829.91;;;20.85;40.52
2675;BME280;1347;42.122;24.746;2024-02-04T09:14:31;99823.31;;;21.12;39.54
2675;BME280;1347;42.122;24.746;2024-02-04T09:16:57;99824.50;;;21.63;39.01
2675;BME280;1347;42.122;24.746;2024-02-04T09:19:26;99817.25;;;21.82;38.58
2675;BME280;1347;42.122;24.746;2024-02-04T09:21:52;99811.38;;;21.11;39.19
2675;BME280;1347;42.122;24.746;2024-02-04T09:24:19;99806.19;;;21.29;38.67
2675;BME280;1347;42.122;24.746;2024-02-04T09:26:46;99804.38;;;21.55;38.64
2675;BME280;1347;42.122;24.746;2024-02-04T09:29:13;99807.94;;;21.23;38.75
2675;BME280;1347;42.122;24.746;2024-02-04T09:31:40;99781.53;;;21.28;38.52
2675;BME280;1347;42.122;24.746;2024-02-04T09:34:07;99794.25;;;21.29;38.35
2675;BME280;1347;42.122;24.746;2024-02-04T09:36:35;99784.94;;;20.47;39.45
2675;BME280;1347;42.122;24.746;2024-02-04T09:39:02;99772.06;;;20.34;39.63
2675;BME280;1347;42.122;24.746;2024-02-04T09:41:30;99772.50;;;19.93;39.99
2675;BME280;1347;42.122;24.746;2024-02-04T09:43:58;99766.56;;;19.91;40.54
2675;BME280;1347;42.122;24.746;2024-02-04T09:46:27;99771.75;;;19.89;40.72
2675;BME280;1347;42.122;24.746;2024-02-04T09:48:55;99772.66;;;19.62;40.51
2675;BME280;1347;42.122;24.746;2024-02-04T09:51:22;99767.22;;;19.98;40.48
2675;BME280;1347;42.122;24.746;2024-02-04T09:53:52;99775.84;;;19.61;40.66
2675;BME280;1347;42.122;24.746;2024-02-04T09:56:22;99765.56;;;20.20;40.42
2675;BME280;1347;42.122;24.746;2024-02-04T09:58:51;99764.13;;;21.24;38.58
2675;BME280;1347;42.122;24.746;2024-02-04T10:01:18;99752.56;;;21.71;37.71
2675;BME280;1347;42.122;24.746;2024-02-04T10:03:47;99750.50;;;21.42;38.26
2675;BME280;1347;42.122;24.746;2024-02-04T10:06:14;99749.25;;;21.59;37.56
2675;BME280;1347;42.122;24.746;2024-02-04T10:08:41;99744.41;;;21.31;38.43
2675;BME280;1347;42.122;24.746;2024-02-04T10:11:10;99739.09;;;21.04;38.52
2675;BME280;1347;42.122;24.746;2024-02-04T10:13:44;99743.34;;;20.56;39.02
2675;BME280;1347;42.122;24.746;2024-02-04T10:16:12;99748.25;;;19.93;40.33
2675;BME280;1347;42.122;24.746;2024-02-04T10:18:41;99741.94;;;19.69;40.84
2675;BME280;1347;42.122;24.746;2024-02-04T10:21:15;99739.50;;;19.01;41.68
2675;BME280;1347;42.122;24.746;2024-02-04T10:23:42;99709.94;;;18.88;42.10
2675;BME280;1347;42.122;24.746;2024-02-04T10:26:10;99733.09;;;18.51;43.17
2675;BME280;1347;42.122;24.746;2024-02-04T10:28:37;99733.94;;;18.44;43.08
2675;BME280;1347;42.122;24.746;2024-02-04T10:31:07;99741.66;;;17.99;43.45
2675;BME280;1347;42.122;24.746;2024-02-04T10:33:35;99712.75;;;17.59;43.52
2675;BME280;1347;42.122;24.746;2024-02-04T10:36:02;99726.84;;;17.34;44.08
2675;BME280;1347;42.122;24.746;2024-02-04T10:38:29;99720.31;;;17.10;44.04
2675;BME280;1347;42.122;24.746;2024-02-04T10:40:59;99721.53;;;17.09;44.12
2675;BME280;1347;42.122;24.746;2024-02-04T10:43:31;99708.28;;;16.83;44.99
2675;BME280;1347;42.122;24.746;2024-02-04T10:46:01;99710.34;;;16.72;45.06
2675;BME280;1347;42.122;24.746;2024-02-04T10:48:29;99723.44;;;16.64;45.44
2675;BME280;1347;42.122;24.746;2024-02-04T10:51:04;99719.34;;;16.83;45.19
2675;BME280;1347;42.122;24.746;2024-02-04T10:53:31;99715.63;;;17.07;45.31
2675;BME280;1347;42.122;24.746;2024-02-04T10:56:03;99715.78;;;17.30;44.16
2675;BME280;1347;42.122;24.746;2024-02-04T10:58:34;99729.59;;;17.38;44.04
2675;BME280;1347;42.122;24.746;2024-02-04T11:01:02;99743.47;;;17.34;43.96
2675;BME280;1347;42.122;24.746;2024-02-04T11:03:29;99729.25;;;17.32;44.40
2675;BME280;1347;42.122;24.746;2024-02-04T11:05:57;99710.00;;;17.18;44.52
2675;BME280;1347;42.122;24.746;2024-02-04T11:08:24;99739.50;;;17.35;44.76
2675;BME280;1347;42.122;24.746;2024-02-04T11:10:51;99748.44;;;17.09;44.82
2675;BME280;1347;42.122;24.746;2024-02-04T11:13:20;99744.84;;;17.15;44.76
2675;BME280;1347;42.122;24.746;2024-02-04T11:15:53;99751.94;;;17.16;44.53
2675;BME280;1347;42.122;24.746;2024-02-04T11:18:53;99715.53;;;17.18;44.44
2675;BME280;1347;42.122;24.746;2024-02-04T11:21:45;99755.91;;;17.19;44.80
2675;BME280;1347;42.122;24.746;2024-02-04T11:24:29;99729.66;;;17.30;44.17
2675;BME280;1347;42.122;24.746;2024-02-04T11:27:00;99713.53;;;17.63;43.85
2675;BME280;1347;42.122;24.746;2024-02-04T11:29:27;99729.13;;;17.87;43.37
2675;BME280;1347;42.122;24.746;2024-02-04T11:31:56;99732.38;;;18.43;42.88
2675;BME280;1347;42.122;24.746;2024-02-04T11:34:23;99724.31;;;18.83;41.77
2675;BME280;1347;42.122;24.746;2024-02-04T11:36:52;99739.59;;;18.94;41.36
2675;BME280;1347;42.122;24.746;2024-02-04T11:39:19;99694.66;;;18.76;41.98
2675;BME280;1347;42.122;24.746;2024-02-04T11:41:48;99740.19;;;18.82;41.95
2675;BME280;1347;42.122;24.746;2024-02-04T11:44:20;99703.72;;;19.03;41.82
2675;BME280;1347;42.122;24.746;2024-02-04T11:46:47;99684.59;;;19.09;41.34
2675;BME280;1347;42.122;24.746;2024-02-04T11:49:16;99688.94;;;18.60;41.58
2675;BME280;1347;42.122;24.746;2024-02-04T11:51:47;99706.41;;;18.60;41.96
2675;BME280;1347;42.122;24.746;2024-02-04T11:54:15;99685.75;;;18.61;41.86
2675;BME280;1347;42.122;24.746;2024-02-04T11:56:44;99677.78;;;18.63;41.67
2675;BME280;1347;42.122;24.746;2024-02-04T11:59:11;99682.81;;;18.72;41.52
2675;BME280;1347;42.122;24.746;2024-02-04T12:01:39;99680.63;;;18.60;42.18
2675;BME280;1347;42.122;24.746;2024-02-04T12:04:10;99625.03;;;18.10;42.48
2675;BME280;1347;42.122;24.746;2024-02-04T12:06:40;99640.47;;;17.80;43.01
2675;BME280;1347;42.122;24.746;2024-02-04T12:09:08;99635.50;;;17.95;43.29
2675;BME280;1347;42.122;24.746;2024-02-04T12:11:35;99623.34;;;17.85;42.91
2675;BME280;1347;42.122;24.746;2024-02-04T12:14:03;99609.06;;;17.87;43.15
2675;BME280;1347;42.122;24.746;2024-02-04T12:16:31;99618.28;;;17.80;43.73
2675;BME280;1347;42.122;24.746;2024-02-04T12:18:59;99610.22;;;17.21;44.87
2675;BME280;1347;42.122;24.746;2024-02-04T12:21:26;99618.47;;;17.28;44.83
2675;BME280;1347;42.122;24.746;2024-02-04T12:23:54;99586.69;;;17.37;44.64
2675;BME280;1347;42.122;24.746;2024-02-04T12:26:22;99654.66;;;17.48;44.50
2675;BME280;1347;42.122;24.746;2024-02-04T12:28:50;99629.31;;;17.50;44.31
2675;BME280;1347;42.122;24.746;2024-02-04T12:31:17;99640.16;;;17.34;44.21
2675;BME280;1347;42.122;24.746;2024-02-04T12:33:52;99646.22;;;17.21;45.04
2675;BME280;1347;42.122;24.746;2024-02-04T12:36:20;99641.88;;;17.20;45.07
2675;BME280;1347;42.122;24.746;2024-02-04T12:38:53;99616.22;;;17.13;45.33
2675;BME280;1347;42.122;24.746;2024-02-04T12:41:21;99644.34;;;17.11;45.51
2675;BME280;1347;42.122;24.746;2024-02-04T12:43:52;99581.19;;;16.99;45.38
2675;BME280;1347;42.122;24.746;2024-02-04T12:46:20;99642.25;;;16.81;46.07
2675;BME280;1347;42.122;24.746;2024-02-04T12:48:51;99626.88;;;16.73;46.57
2675;BME280;1347;42.122;24.746;2024-02-04T12:51:23;99642.38;;;16.67;46.65
2675;BME280;1347;42.122;24.746;2024-02-04T12:53:50;99646.28;;;16.70;46.73
2675;BME280;1347;42.122;24.746;2024-02-04T12:56:39;99640.00;;;16.66;46.79
2675;BME280;1347;42.122;24.746;2024-02-04T12:59:06;99656.22;;;16.60;47.46
2675;BME280;1347;42.122;24.746;2024-02-04T13:01:33;99664.56;;;16.56;47.64
2675;BME280;1347;42.122;24.746;2024-02-04T13:04:00;99661.00;;;16.56;47.47
2675;BME280;1347;42.122;24.746;2024-02-04T13:06:27;99668.84;;;16.61;47.22
2675;BME280;1347;42.122;24.746;2024-02-04T13:08:55;99669.66;;;16.65;47.23
2675;BME280;1347;42.122;24.746;2024-02-04T13:11:24;99666.56;;;16.52;47.59
2675;BME280;1347;42.122;24.746;2024-02-04T13:13:53;99654.69;;;16.52;47.69
2675;BME280;1347;42.122;24.746;2024-02-04T13:16:20;99645.94;;;16.68;47.49
2675;BME280;1347;42.122;24.746;2024-02-04T13:18:52;99663.66;;;16.74;47.29